ウラジオストク の空港の天気 - METARとTAF

ウラジオストク空港 ( UHWW / VVO ) - ロシア ウラジオストク
飛行場実況気象(Metar)
観測時間07/23 04:00 VLAT (07/22 18:00 UTC)
風向・風速西南西 3m/s
視程8000m
天気現象
全天の4割程度の雲 雲底高度 240m
全天の8割程度の雲 雲底高度 1220m
気温19℃
湿度100%
気圧1008hPa
METARUHWW 221800Z 25003MPS 8000 SCT008 BKN040CB 19/19 Q1008 R25L/0///70 NOSIG RMK QFE754
過去の天気等 Google飛行場航空写真 Wunderground天気予報

過去48時間のMETAR

飛行場予報(TAF)
発表時間: 7/23 03:00 VLAT (7/22 17:00 UTC)
予報対象時間: 23日4時 VLAT ~ 24日4時 VLAT
風向・風速西南西 3m/s
視程3100m
天気現象もや
全天の8割程度の雲 雲底高度 210m
全天の8割程度の雲 雲底高度 610m
23日4時 VLAT ~ 23日10時 VLAT に一時的に
視程300m
天気現象
23日10時 VLAT から
風向・風速南 3m/s
視程10km以上
全天の4割程度の雲 雲底高度 760m
23日10時 VLAT ~ 23日20時 VLAT に一時的に
視程4000m
天気現象弱いしゅう雨
全天の8割程度の積乱雲 雲底高度 400m
TAF UHWW 221700Z 2218/2318 24003MPS 3100 BR BKN007 BKN020
TEMPO 2218/2224 0300 FG
FM230000 18003MPS 9999 SCT025
TEMPO 2300/2310 4000 -SHRA BKN013CB